Time;durP1;ratioP1;P1;durP2;ratioP2;P2;SDS_P1;SDS_P2;PMS_P1;PMS_P2;Temp;Humidity;BMP_temperature;BMP_pressure;BME280_temperature;BME280_humidity;BME280_pressure;Samples;Min_cycle;Max_cycle;Signal;HPM_P1;HPM_P2
2021/10/07 00:01:15;;;;;;;8.97;8.07;;;;;;;12.21;75.96;101940.59;5021689;28;20418;-68
2021/10/07 00:03:41;;;;;;;9.13;8.20;;;;;;;11.99;75.97;101944.44;5024174;28;20250;-69
2021/10/07 00:06:06;;;;;;;9.20;8.30;;;;;;;12.09;75.99;101946.44;5022711;28;20231;-69
2021/10/07 00:08:31;;;;;;;12.80;9.73;;;;;;;12.16;74.89;101948.31;5023466;28;20529;-69
2021/10/07 00:10:56;;;;;;;9.57;8.67;;;;;;;11.86;76.34;101948.47;5020948;28;20222;-69
2021/10/07 00:13:22;;;;;;;11.70;8.50;;;;;;;12.04;76.33;101941.09;5020227;28;20186;-69
2021/10/07 00:15:47;;;;;;;9.60;8.60;;;;;;;11.97;75.67;101941.78;5010696;28;20230;-69
2021/10/07 00:18:12;;;;;;;14.07;9.80;;;;;;;11.75;76.36;101961.28;4999771;28;20211;-69
2021/10/07 00:20:38;;;;;;;9.50;8.50;;;;;;;11.70;76.11;101962.88;4999037;28;20211;-69
2021/10/07 00:23:03;;;;;;;9.83;8.70;;;;;;;11.69;76.70;101969.84;5000281;28;20179;-70
2021/10/07 00:25:28;;;;;;;10.80;9.70;;;;;;;11.98;76.04;101974.94;5000447;28;20175;-69
2021/10/07 00:28:01;;;;;;;9.63;8.60;;;;;;;12.13;75.55;101967.44;4999785;28;20250;-70
2021/10/07 00:30:26;;;;;;;9.93;8.47;;;;;;;12.25;75.27;101969.44;5000516;28;20259;-69
2021/10/07 00:33:11;;;;;;;9.60;8.03;;;;;;;12.07;75.56;101967.31;5000243;28;20417;-69
2021/10/07 00:35:45;;;;;;;9.73;8.23;;;;;;;12.07;75.57;101969.03;5001040;28;20168;-70
2021/10/07 00:40:54;;;;;;;9.53;8.53;;;;;;;11.71;76.59;101975.97;5000298;28;20424;-69
2021/10/07 00:43:20;;;;;;;10.80;9.10;;;;;;;11.89;76.62;101972.06;4999946;28;20807;-69
2021/10/07 00:45:49;;;;;;;9.30;8.40;;;;;;;12.12;75.22;101976.16;4999799;28;20188;-69
2021/10/07 00:48:15;;;;;;;9.00;8.10;;;;;;;11.48;77.46;101979.75;5000185;28;20164;-69
2021/10/07 00:50:40;;;;;;;9.50;8.50;;;;;;;11.72;76.54;101982.97;4999609;28;20430;-69
2021/10/07 00:53:05;;;;;;;9.00;8.17;;;;;;;11.80;76.72;101983.19;5037877;28;20214;-69
2021/10/07 00:55:31;;;;;;;8.97;8.17;;;;;;;11.79;76.30;101991.84;5022450;28;20167;-69
2021/10/07 00:57:56;;;;;;;8.97;8.17;;;;;;;11.91;76.10;101991.28;5038893;28;20529;-69
2021/10/07 01:00:21;;;;;;;9.53;8.27;;;;;;;11.85;75.51;101994.59;5021809;28;20464;-70
2021/10/07 01:02:47;;;;;;;10.30;9.30;;;;;;;11.76;76.31;101997.88;5039853;28;20166;-70
2021/10/07 01:05:12;;;;;;;11.67;8.93;;;;;;;11.86;76.09;101995.50;5038838;28;20174;-69
2021/10/07 01:07:37;;;;;;;10.17;9.17;;;;;;;11.78;76.38;101993.59;5038878;28;20558;-69
2021/10/07 01:10:03;;;;;;;9.43;8.43;;;;;;;11.72;76.23;101993.44;5038560;28;20181;-70
2021/10/07 01:12:28;;;;;;;9.07;8.27;;;;;;;11.74;76.47;101990.84;5038683;28;20228;-70
2021/10/07 01:14:54;;;;;;;9.80;8.73;;;;;;;11.47;77.47;101997.13;5038781;28;20183;-70
2021/10/07 01:17:28;;;;;;;9.10;7.83;;;;;;;11.56;76.97;102007.81;5039146;28;20284;-70
2021/10/07 01:19:56;;;;;;;10.73;8.87;;;;;;;11.25;77.95;102011.34;5038522;28;20178;-69
2021/10/07 01:22:23;;;;;;;9.80;8.60;;;;;;;11.36;77.74;102004.69;5038584;28;20437;-70
2021/10/07 01:24:49;;;;;;;9.93;8.93;;;;;;;11.51;77.20;102003.34;5021628;28;20452;-69
2021/10/07 01:27:15;;;;;;;9.63;8.73;;;;;;;11.52;76.97;101995.53;5038288;28;20875;-69
2021/10/07 01:29:41;;;;;;;9.17;8.30;;;;;;;11.56;76.35;102000.00;5038891;28;20712;-70
2021/10/07 01:32:07;;;;;;;10.00;9.10;;;;;;;11.61;76.20;101998.38;5038441;28;20421;-69
2021/10/07 01:34:33;;;;;;;9.67;8.77;;;;;;;11.51;76.53;101995.50;5038525;28;20603;-69
2021/10/07 01:36:59;;;;;;;10.50;7.97;;;;;;;11.16;78.29;101998.91;5039059;28;20552;-70
2021/10/07 01:39:24;;;;;;;9.77;8.83;;;;;;;11.25;77.73;101999.19;5038333;28;20194;-70
2021/10/07 01:41:50;;;;;;;12.83;8.03;;;;;;;11.15;77.80;102005.00;5038156;28;20425;-69
2021/10/07 01:44:20;;;;;;;11.07;8.67;;;;;;;11.23;77.56;101998.25;5038902;28;20268;-69
2021/10/07 01:46:46;;;;;;;13.80;8.90;;;;;;;11.48;76.72;101996.31;5021082;28;20400;-69
2021/10/07 01:49:11;;;;;;;8.93;8.00;;;;;;;11.27;77.52;102004.44;5038553;28;20687;-69
2021/10/07 01:51:37;;;;;;;9.57;7.73;;;;;;;11.32;77.37;102000.22;5038065;28;20328;-71
2021/10/07 01:54:04;;;;;;;10.13;7.90;;;;;;;11.10;77.55;102006.59;5038125;28;20185;-69
2021/10/07 01:56:29;;;;;;;9.80;8.70;;;;;;;10.81;79.24;102011.88;5038220;28;20467;-69
2021/10/07 01:58:55;;;;;;;9.57;8.57;;;;;;;11.10;78.36;102009.22;5038218;28;20813;-70
2021/10/07 02:01:21;;;;;;;9.40;8.30;;;;;;;10.96;nan;102011.44;5037971;28;20536;-69
2021/10/07 02:03:46;;;;;;;10.70;8.60;;;;;;;11.10;78.72;102009.22;5038431;28;20395;-70
2021/10/07 02:06:11;;;;;;;15.17;9.63;;;;;;;11.24;78.22;102017.41;5038078;28;20174;-71
2021/10/07 02:08:37;;;;;;;9.40;8.20;;;;;;;11.22;78.53;102017.38;5038134;28;20182;-69
2021/10/07 02:11:02;;;;;;;11.43;8.40;;;;;;;11.01;79.67;102027.22;5038292;28;20174;-69
2021/10/07 02:13:27;;;;;;;14.60;9.40;;;;;;;11.15;78.72;102030.19;5037902;28;20219;-69
2021/10/07 02:15:53;;;;;;;9.43;8.30;;;;;;;11.25;77.65;102033.13;5020593;28;20564;-70
2021/10/07 02:18:18;;;;;;;13.50;9.33;;;;;;;11.31;77.51;102029.78;5038427;28;20460;-69
2021/10/07 02:20:43;;;;;;;11.43;8.63;;;;;;;11.04;78.30;102033.41;5037874;28;20263;-69
2021/10/07 02:23:09;;;;;;;11.20;8.90;;;;;;;11.26;77.69;102031.41;5042228;28;20590;-70
2021/10/07 02:25:34;;;;;;;10.53;8.83;;;;;;;11.12;78.23;102036.22;5044442;28;20174;-69
2021/10/07 02:28:00;;;;;;;11.37;9.07;;;;;;;11.26;77.31;102034.88;5041965;28;20178;-69
2021/10/07 02:30:25;;;;;;;9.77;8.77;;;;;;;11.47;76.49;102049.38;5041967;28;20257;-69
2021/10/07 02:32:51;;;;;;;15.63;10.30;;;;;;;11.52;76.67;102041.66;5042126;28;20415;-69
2021/10/07 02:35:16;;;;;;;12.30;9.40;;;;;;;11.31;76.76;102048.06;5024983;28;20532;-69
2021/10/07 02:37:43;;;;;;;10.97;9.90;;;;;;;11.39;76.77;102057.00;5043065;28;20534;-69
2021/10/07 02:40:10;;;;;;;12.03;8.40;;;;;;;11.37;76.46;102050.84;5043120;28;20189;-69
2021/10/07 02:42:35;;;;;;;11.73;9.37;;;;;;;11.09;78.15;102054.41;5024631;28;20392;-70
2021/10/07 02:45:01;;;;;;;10.80;9.20;;;;;;;10.99;77.73;102058.47;5043774;28;20414;-70
2021/10/07 02:47:26;;;;;;;11.30;8.50;;;;;;;10.53;79.84;102060.59;5047133;28;20224;-70
2021/10/07 02:49:51;;;;;;;13.93;8.70;;;;;;;11.01;78.44;102059.41;5048150;28;20225;-70
2021/10/07 02:52:17;;;;;;;14.70;8.60;;;;;;;11.04;77.67;102053.38;5042920;28;20261;-69
2021/10/07 02:54:42;;;;;;;11.03;9.20;;;;;;;10.53;79.85;102071.03;5041991;28;20252;-69
2021/10/07 02:57:07;;;;;;;19.83;14.40;;;;;;;10.89;78.37;102064.25;5041319;28;20214;-69
2021/10/07 02:59:33;;;;;;;15.47;10.27;;;;;;;11.03;77.93;102069.91;5041655;28;20262;-70
2021/10/07 03:01:59;;;;;;;10.50;9.37;;;;;;;10.99;77.71;102065.41;5024647;28;20198;-70
2021/10/07 03:04:24;;;;;;;11.30;9.87;;;;;;;10.79;78.02;102079.63;5041532;28;20866;-69
2021/10/07 03:06:50;;;;;;;10.27;9.17;;;;;;;10.90;78.22;102085.19;5041321;28;20174;-69
2021/10/07 03:09:15;;;;;;;10.57;9.30;;;;;;;11.03;78.43;102094.25;5041773;28;20185;-69
2021/10/07 03:11:40;;;;;;;14.73;9.03;;;;;;;11.04;77.53;102095.13;5023901;28;20479;-69
2021/10/07 03:14:05;;;;;;;12.50;10.57;;;;;;;11.09;77.37;102090.94;5041062;28;20178;-69
2021/10/07 03:16:33;;;;;;;9.80;8.80;;;;;;;11.10;77.65;102097.94;5041392;28;20197;-70
2021/10/07 03:18:58;;;;;;;9.53;8.57;;;;;;;11.07;77.38;102100.47;5041402;28;20608;-70
2021/10/07 03:21:24;;;;;;;12.27;9.13;;;;;;;10.74;78.94;102109.94;5040981;28;20417;-70
2021/10/07 03:23:49;;;;;;;13.53;9.37;;;;;;;11.03;77.72;102102.09;5041598;28;20170;-69
2021/10/07 03:26:14;;;;;;;10.33;9.23;;;;;;;10.88;78.52;102104.22;5040422;28;20198;-69
2021/10/07 03:28:39;;;;;;;9.60;8.70;;;;;;;10.68;79.14;102104.50;5040804;28;20427;-69
2021/10/07 03:31:05;;;;;;;11.40;8.60;;;;;;;10.81;78.96;102115.31;5041003;28;20166;-70
2021/10/07 03:33:30;;;;;;;10.13;8.97;;;;;;;10.77;79.42;102116.94;5040133;28;20185;-69
2021/10/07 03:35:55;;;;;;;10.93;9.30;;;;;;;10.54;80.11;102118.81;5040803;28;20544;-69
2021/10/07 03:38:21;;;;;;;13.67;9.13;;;;;;;10.70;79.07;102118.50;5041171;28;20204;-69
2021/10/07 03:40:46;;;;;;;12.63;9.23;;;;;;;10.59;79.62;102119.88;5040647;28;20174;-70
2021/10/07 03:43:11;;;;;;;10.30;9.20;;;;;;;10.32;80.67;102120.72;5040527;28;20198;-70
2021/10/07 03:45:37;;;;;;;11.33;8.83;;;;;;;10.53;79.60;102127.50;5041076;28;20175;-69
2021/10/07 03:48:02;;;;;;;13.20;10.03;;;;;;;10.38;80.34;102135.72;5023125;28;20178;-69
2021/10/07 03:50:27;;;;;;;9.40;8.50;;;;;;;10.39;79.98;102135.78;5040333;28;20174;-69
2021/10/07 03:52:53;;;;;;;9.70;8.40;;;;;;;10.27;79.75;102150.97;5040261;28;20226;-68
2021/10/07 03:55:18;;;;;;;9.30;8.43;;;;;;;10.17;80.52;102147.16;5040250;28;20228;-69
2021/10/07 03:57:44;;;;;;;9.07;8.07;;;;;;;10.24;79.85;102143.94;5040421;28;20252;-69
2021/10/07 04:00:10;;;;;;;9.67;8.80;;;;;;;10.12;79.76;102151.34;5040217;28;20455;-69
2021/10/07 04:02:35;;;;;;;9.20;8.30;;;;;;;10.17;79.91;102156.69;5040349;28;20178;-69
2021/10/07 04:05:00;;;;;;;9.40;8.50;;;;;;;10.25;79.40;102157.84;5023330;28;20421;-69
2021/10/07 04:07:26;;;;;;;10.57;8.37;;;;;;;10.22;79.16;102157.75;5040041;28;20189;-69
2021/10/07 04:09:51;;;;;;;10.27;8.47;;;;;;;10.13;79.93;102170.47;5039783;28;20185;-69
2021/10/07 04:12:16;;;;;;;8.97;8.07;;;;;;;10.18;79.61;102172.38;5023206;28;20213;-70
2021/10/07 04:14:42;;;;;;;8.53;7.77;;;;;;;10.29;78.93;102172.75;5039911;28;20309;-69
2021/10/07 04:17:07;;;;;;;9.43;8.00;;;;;;;9.99;79.91;102173.47;5039734;28;20220;-69
2021/10/07 04:19:32;;;;;;;11.37;8.40;;;;;;;10.00;79.66;102179.53;5040268;28;20257;-69
2021/10/07 04:21:58;;;;;;;9.13;8.33;;;;;;;9.99;79.78;102191.69;5039603;28;20210;-71
2021/10/07 04:24:23;;;;;;;9.40;8.03;;;;;;;10.23;78.42;102191.66;5039784;28;20212;-69
2021/10/07 04:26:49;;;;;;;9.43;8.43;;;;;;;10.13;78.74;102207.81;5040359;28;20171;-69
2021/10/07 04:29:14;;;;;;;9.63;8.70;;;;;;;10.08;79.31;102205.06;5039725;28;20170;-70
2021/10/07 04:31:40;;;;;;;10.70;9.17;;;;;;;9.90;79.87;102212.22;5039464;28;20166;-70
2021/10/07 04:34:07;;;;;;;9.73;8.83;;;;;;;10.12;78.56;102211.28;5040006;28;20171;-70
2021/10/07 04:36:32;;;;;;;11.53;9.30;;;;;;;10.05;78.77;102211.88;5039443;28;20170;-71
2021/10/07 04:38:58;;;;;;;9.13;8.23;;;;;;;9.59;80.67;102213.69;5039423;28;20479;-70
2021/10/07 04:41:23;;;;;;;9.33;8.30;;;;;;;9.92;79.89;102210.56;5039750;28;20206;-70
2021/10/07 04:43:48;;;;;;;11.10;8.53;;;;;;;10.00;79.34;102219.53;5039408;28;20198;-70
2021/10/07 04:46:18;;;;;;;9.83;8.77;;;;;;;9.68;80.69;102218.38;5038392;28;20206;-69
2021/10/07 04:48:43;;;;;;;9.73;8.73;;;;;;;9.82;80.23;102221.47;5039714;28;20163;-69
2021/10/07 04:51:08;;;;;;;9.93;9.03;;;;;;;9.94;79.59;102230.63;5038833;28;20453;-69
2021/10/07 04:53:34;;;;;;;9.70;8.80;;;;;;;9.76;80.44;102229.94;5021927;28;20460;-70
2021/10/07 04:55:59;;;;;;;12.20;9.40;;;;;;;9.76;80.17;102230.81;5039463;28;20170;-70
2021/10/07 04:58:25;;;;;;;12.43;9.40;;;;;;;9.77;80.21;102232.59;5039209;28;20220;-69
2021/10/07 05:00:50;;;;;;;10.17;9.17;;;;;;;9.73;80.27;102241.13;5039144;28;20212;-70
2021/10/07 05:03:16;;;;;;;10.07;9.03;;;;;;;9.70;80.99;102241.03;5039650;28;20197;-69
2021/10/07 05:05:42;;;;;;;9.63;8.63;;;;;;;9.56;80.88;102248.28;5038908;28;20175;-71
2021/10/07 05:08:08;;;;;;;9.80;8.90;;;;;;;9.18;82.29;102259.84;5038819;28;20174;-69
2021/10/07 05:10:33;;;;;;;10.47;9.17;;;;;;;9.51;81.24;102265.47;5039439;28;20413;-69
2021/10/07 05:12:58;;;;;;;9.60;8.70;;;;;;;9.41;82.25;102269.41;5039010;28;20182;-70
2021/10/07 05:15:25;;;;;;;10.00;9.10;;;;;;;9.06;82.24;102274.09;5038832;28;20193;-68
2021/10/07 05:17:51;;;;;;;11.70;10.30;;;;;;;9.33;82.15;102270.84;5039375;28;20240;-69
2021/10/07 05:20:16;;;;;;;10.00;9.00;;;;;;;9.61;80.75;102267.59;5038737;28;20413;-69
2021/10/07 05:22:41;;;;;;;10.83;9.80;;;;;;;9.63;80.35;102275.47;5038521;28;20432;-69
2021/10/07 05:25:07;;;;;;;10.67;9.60;;;;;;;9.66;80.47;102275.59;5039234;28;20174;-69
2021/10/07 05:27:32;;;;;;;12.70;9.30;;;;;;;9.35;81.31;102282.22;5052206;28;20189;-70
2021/10/07 05:29:58;;;;;;;12.30;10.20;;;;;;;9.15;82.81;102286.63;5064608;28;20440;-70
2021/10/07 05:32:23;;;;;;;10.23;9.33;;;;;;;9.32;81.80;102289.88;5063773;28;20169;-69
2021/10/07 05:34:48;;;;;;;10.70;9.30;;;;;;;9.14;82.12;102297.84;5061143;28;20539;-70
2021/10/07 05:37:13;;;;;;;10.00;9.00;;;;;;;9.15;81.46;102303.94;5041174;28;20205;-69
2021/10/07 05:39:40;;;;;;;10.80;9.80;;;;;;;9.53;80.98;102300.25;5058874;28;20166;-70
2021/10/07 05:42:06;;;;;;;9.87;8.97;;;;;;;9.39;81.46;102310.13;5058191;28;20531;-69
2021/10/07 05:44:31;;;;;;;11.17;9.53;;;;;;;9.49;80.51;102310.50;5052907;28;20426;-68
2021/10/07 05:46:57;;;;;;;10.80;9.70;;;;;;;9.58;80.82;102301.34;5030155;28;20182;-69
2021/10/07 05:49:22;;;;;;;10.00;9.10;;;;;;;9.63;80.91;102306.69;5054843;28;20489;-70
2021/10/07 05:51:48;;;;;;;10.27;9.37;;;;;;;9.44;81.39;102307.69;5057812;28;20535;-69
2021/10/07 05:54:13;;;;;;;10.63;9.53;;;;;;;9.43;80.81;102313.72;5058666;28;20553;-70
2021/10/07 05:56:39;;;;;;;10.57;9.47;;;;;;;9.36;81.39;102325.63;5057657;28;20267;-69
2021/10/07 05:59:04;;;;;;;10.57;9.57;;;;;;;9.18;81.67;102317.97;5058184;28;20260;-69
2021/10/07 06:01:29;;;;;;;11.70;9.93;;;;;;;9.40;81.34;102319.72;5058279;28;20473;-69
2021/10/07 06:03:54;;;;;;;11.23;9.77;;;;;;;9.94;78.98;102318.28;5057958;28;20177;-69
2021/10/07 06:06:20;;;;;;;11.23;10.10;;;;;;;9.92;79.62;102328.66;5057915;28;20222;-69
2021/10/07 06:08:46;;;;;;;11.40;10.30;;;;;;;10.10;78.56;102324.97;5058302;28;20169;-69
2021/10/07 06:11:11;;;;;;;9.87;8.97;;;;;;;10.00;78.43;102325.44;5057731;28;20241;-70
2021/10/07 06:13:36;;;;;;;10.20;9.17;;;;;;;10.28;77.49;102329.97;5057808;28;20541;-68
2021/10/07 06:16:02;;;;;;;10.23;9.23;;;;;;;10.25;77.55;102348.09;5040711;28;20594;-69
2021/10/07 06:18:27;;;;;;;11.10;9.30;;;;;;;9.90;79.27;102343.38;5057675;28;20292;-69
2021/10/07 06:20:52;;;;;;;13.23;10.20;;;;;;;10.03;78.91;102355.13;5048261;28;20267;-70
2021/10/07 06:23:18;;;;;;;10.70;9.70;;;;;;;10.00;79.15;102355.00;5050962;28;20201;-69
2021/10/07 06:25:43;;;;;;;10.47;9.47;;;;;;;10.51;77.00;102356.91;5029914;28;20427;-70
2021/10/07 06:28:09;;;;;;;10.37;9.47;;;;;;;10.38;77.07;102359.91;5053689;28;20507;-69
2021/10/07 06:30:35;;;;;;;11.13;9.80;;;;;;;10.22;78.60;102368.84;5036924;28;20188;-69
2021/10/07 06:33:00;;;;;;;11.23;9.40;;;;;;;10.50;77.01;102362.97;5056860;28;20193;-69
2021/10/07 06:35:26;;;;;;;11.80;10.70;;;;;;;10.54;77.00;102364.84;5054436;28;20398;-67
2021/10/07 06:37:52;;;;;;;11.73;10.63;;;;;;;10.24;76.87;102368.09;5047090;28;20200;-70
2021/10/07 06:40:18;;;;;;;12.53;10.63;;;;;;;10.77;76.19;102367.38;5047729;28;20424;-70
2021/10/07 06:42:43;;;;;;;10.30;9.40;;;;;;;12.39;70.81;102372.50;5055397;28;20409;-70
2021/10/07 06:45:10;;;;;;;13.87;9.63;;;;;;;14.67;62.57;102362.16;5057614;28;20173;-69
2021/10/07 06:47:39;;;;;;;8.67;7.90;;;;;;;15.57;58.21;102362.81;5057396;28;20173;-69
2021/10/07 06:50:06;;;;;;;7.67;7.07;;;;;;;15.81;57.26;102359.69;5057097;28;20441;-70
2021/10/07 06:52:32;;;;;;;7.63;6.83;;;;;;;15.63;56.53;102360.28;5056975;28;20446;-70
2021/10/07 06:54:57;;;;;;;6.60;6.00;;;;;;;16.13;55.87;102361.88;5057324;28;20408;-70
2021/10/07 06:57:23;;;;;;;8.10;6.70;;;;;;;17.55;52.42;102369.38;5057300;28;20208;-70
2021/10/07 06:59:48;;;;;;;7.00;6.00;;;;;;;17.03;53.04;102373.38;5057229;28;20198;-70
2021/10/07 07:02:13;;;;;;;6.60;6.00;;;;;;;17.65;51.73;102376.50;5057078;28;20284;-69
2021/10/07 07:04:38;;;;;;;6.60;6.00;;;;;;;17.85;50.04;102377.50;5057499;28;20182;-69
2021/10/07 07:07:04;;;;;;;6.77;6.27;;;;;;;17.54;50.17;102380.84;5057205;28;20201;-69
2021/10/07 07:09:29;;;;;;;7.10;6.40;;;;;;;16.65;54.26;102387.03;5053564;28;20186;-69
2021/10/07 07:11:54;;;;;;;6.33;5.73;;;;;;;18.34;49.63;102386.53;5041197;28;20174;-69
2021/10/07 07:14:20;;;;;;;7.80;5.97;;;;;;;19.19;47.41;102376.16;5040575;28;20535;-69
2021/10/07 07:16:45;;;;;;;8.23;5.83;;;;;;;18.00;50.14;102383.75;5040798;28;20217;-69
2021/10/07 07:19:10;;;;;;;6.33;5.50;;;;;;;18.27;49.67;102387.41;5049842;28;20178;-69
2021/10/07 07:21:36;;;;;;;8.00;5.57;;;;;;;18.45;48.76;102384.81;5060303;28;20170;-68
2021/10/07 07:24:02;;;;;;;6.23;5.63;;;;;;;19.53;46.21;102382.28;5056761;28;20194;-70
2021/10/07 07:26:29;;;;;;;8.80;6.23;;;;;;;18.59;48.34;102386.63;5058674;28;20173;-69
2021/10/07 07:28:55;;;;;;;5.70;5.20;;;;;;;18.79;48.54;102399.88;5040374;28;20694;-69
2021/10/07 07:31:21;;;;;;;7.80;5.67;;;;;;;19.61;46.64;102394.66;5051622;28;20428;-69
2021/10/07 07:33:47;;;;;;;6.40;5.40;;;;;;;20.16;44.72;102394.53;5060213;28;20504;-69
2021/10/07 07:36:20;;;;;;;6.07;5.67;;;;;;;20.10;44.70;102407.78;5059592;28;20460;-69
2021/10/07 07:38:45;;;;;;;8.20;5.87;;;;;;;19.37;47.39;102409.66;5060277;28;20215;-69
2021/10/07 07:41:11;;;;;;;6.70;5.50;;;;;;;20.57;44.48;102404.94;5060102;28;20416;-69
2021/10/07 07:43:38;;;;;;;6.67;6.10;;;;;;;20.27;44.40;102417.41;5060289;28;20169;-69
2021/10/07 07:46:03;;;;;;;10.90;6.07;;;;;;;19.03;47.52;102422.84;5060293;28;20829;-69
2021/10/07 07:48:31;;;;;;;7.10;6.50;;;;;;;19.55;46.26;102421.09;5060281;28;20413;-69
2021/10/07 07:50:56;;;;;;;6.00;5.40;;;;;;;21.48;42.71;102410.47;5059996;28;20432;-70
2021/10/07 07:53:22;;;;;;;7.47;6.00;;;;;;;19.89;45.00;102415.78;5059937;28;20415;-68
2021/10/07 07:55:47;;;;;;;7.17;5.83;;;;;;;20.45;44.56;102417.34;5060282;28;20531;-69
2021/10/07 07:58:13;;;;;;;8.03;5.50;;;;;;;20.04;44.98;102418.41;5059842;28;20300;-69
2021/10/07 08:00:39;;;;;;;7.83;5.67;;;;;;;20.60;44.26;102412.88;5059692;28;20177;-69
2021/10/07 08:03:05;;;;;;;7.53;6.30;;;;;;;21.61;42.33;102418.34;5060166;28;20197;-69
2021/10/07 08:05:31;;;;;;;9.40;6.47;;;;;;;21.64;41.90;102410.38;5059539;28;20420;-70
2021/10/07 08:07:56;;;;;;;9.93;5.73;;;;;;;19.78;44.47;102421.06;5059638;28;20415;-70
2021/10/07 08:10:21;;;;;;;14.10;6.20;;;;;;;21.65;41.59;102420.97;5059652;28;20166;-70
2021/10/07 08:12:47;;;;;;;10.63;5.77;;;;;;;21.43;42.74;102412.28;5058578;28;20173;-69
2021/10/07 08:15:12;;;;;;;6.30;5.50;;;;;;;20.83;43.46;102420.72;5052032;28;21330;-71
2021/10/07 08:17:40;;;;;;;6.80;5.80;;;;;;;22.09;41.71;102413.41;5049954;28;20261;-69
2021/10/07 08:20:08;;;;;;;8.93;5.93;;;;;;;20.84;43.62;102428.66;5050959;28;20212;-70
2021/10/07 08:22:34;;;;;;;8.23;5.80;;;;;;;21.72;41.94;102420.88;5051407;28;20754;-71
2021/10/07 08:24:59;;;;;;;6.30;5.70;;;;;;;21.36;42.80;102423.84;5049219;28;20460;-68
2021/10/07 08:27:26;;;;;;;10.97;5.80;;;;;;;21.48;42.21;102422.88;5048287;28;20336;-68
2021/10/07 08:29:53;;;;;;;6.43;5.83;;;;;;;22.67;39.73;102416.22;5053355;28;20173;-70
2021/10/07 08:32:19;;;;;;;7.77;6.00;;;;;;;22.08;40.73;102426.69;5043995;28;20417;-68
2021/10/07 08:34:44;;;;;;;7.17;6.07;;;;;;;21.50;42.25;102421.06;5021781;28;20512;-69
2021/10/07 08:37:09;;;;;;;9.37;6.43;;;;;;;21.98;41.32;102426.78;5039236;28;20601;-69
2021/10/07 08:39:35;;;;;;;11.50;6.00;;;;;;;21.78;42.16;102424.34;5022128;28;20170;-69
2021/10/07 08:42:00;;;;;;;8.33;5.43;;;;;;;23.16;39.19;102422.59;5038985;28;20181;-69
2021/10/07 08:44:27;;;;;;;11.10;6.10;;;;;;;22.95;38.89;102423.78;5039237;28;20545;-69
2021/10/07 08:46:53;;;;;;;7.07;5.63;;;;;;;23.07;38.74;102428.03;5039110;28;20175;-69
2021/10/07 08:49:21;;;;;;;8.47;5.87;;;;;;;22.08;40.81;102430.22;5038906;28;20841;-69
2021/10/07 08:51:47;;;;;;;6.97;5.17;;;;;;;21.81;41.27;102428.75;5038444;28;20456;-69
2021/10/07 08:54:14;;;;;;;6.80;5.27;;;;;;;22.65;40.44;102428.66;5041239;28;20848;-68
2021/10/07 08:56:39;;;;;;;5.80;5.30;;;;;;;21.66;42.13;102429.78;5058673;28;20412;-69
2021/10/07 08:59:06;;;;;;;5.83;5.27;;;;;;;22.18;41.01;102431.03;5040898;28;20416;-70
2021/10/07 09:01:42;;;;;;;7.30;4.93;;;;;;;23.00;38.55;102433.47;5058881;28;20607;-69
2021/10/07 09:04:33;;;;;;;7.20;5.03;;;;;;;21.80;42.01;102435.84;5058838;28;20431;-69
2021/10/07 09:07:08;;;;;;;5.70;5.10;;;;;;;22.86;39.62;102427.47;5058684;28;20455;-69
2021/10/07 09:09:35;;;;;;;5.10;4.70;;;;;;;23.61;37.66;102427.16;5041840;28;20415;-70
2021/10/07 09:12:06;;;;;;;7.63;4.70;;;;;;;22.57;40.56;102433.19;5024822;28;20455;-69
2021/10/07 09:14:39;;;;;;;5.20;4.70;;;;;;;23.20;38.69;102432.28;5058687;28;20530;-70
2021/10/07 09:17:06;;;;;;;6.83;4.60;;;;;;;23.67;38.05;102427.06;5042181;28;20450;-70
2021/10/07 09:19:37;;;;;;;5.50;3.90;;;;;;;22.68;39.37;102433.94;5058653;28;20452;-68
2021/10/07 09:22:23;;;;;;;5.50;4.17;;;;;;;22.75;39.91;102435.59;5058397;28;20511;-69
2021/10/07 09:24:50;;;;;;;6.57;4.33;;;;;;;21.49;42.31;102438.75;5058630;28;20446;-70
2021/10/07 09:27:22;;;;;;;5.63;4.23;;;;;;;22.66;40.47;102441.06;5058133;28;20448;-69
2021/10/07 09:29:56;;;;;;;7.53;4.70;;;;;;;22.41;40.34;102445.81;5040754;28;20408;-69
2021/10/07 09:32:46;;;;;;;5.23;4.30;;;;;;;23.58;38.58;102433.41;5057584;28;20462;-69
2021/10/07 09:35:13;;;;;;;5.23;4.67;;;;;;;23.08;39.61;102443.97;5057677;28;20507;-69
2021/10/07 09:37:43;;;;;;;4.93;4.53;;;;;;;24.21;36.87;102445.56;5057772;28;20460;-68
2021/10/07 09:40:13;;;;;;;7.77;5.03;;;;;;;23.11;39.25;102448.38;5040751;28;20412;-69
2021/10/07 09:42:50;;;;;;;7.10;5.33;;;;;;;22.11;41.75;102455.88;5057299;28;20426;-69
2021/10/07 09:45:17;;;;;;;7.20;5.00;;;;;;;23.96;37.79;102444.28;5057855;28;20411;-69
2021/10/07 09:47:48;;;;;;;5.63;5.00;;;;;;;23.24;39.29;102454.41;5057766;28;20412;-68
2021/10/07 09:50:18;;;;;;;5.93;5.33;;;;;;;22.15;41.25;102466.47;5040678;28;20515;-69
2021/10/07 09:52:45;;;;;;;5.53;4.73;;;;;;;23.60;38.40;102454.69;5057574;28;20459;-69
2021/10/07 09:55:12;;;;;;;6.50;4.47;;;;;;;23.23;39.05;102453.53;5057335;28;20895;-69
2021/10/07 09:58:10;;;;;;;5.27;4.70;;;;;;;23.72;38.47;102457.16;5057951;28;20451;-70
2021/10/07 10:00:38;;;;;;;5.00;4.30;;;;;;;22.74;39.90;102459.56;5042194;28;20424;-70
2021/10/07 10:03:07;;;;;;;5.40;4.90;;;;;;;23.06;39.80;102461.75;5055724;28;20428;-69
2021/10/07 10:05:35;;;;;;;8.77;7.10;;;;;;;22.62;40.37;102449.97;5049598;28;20453;-70
2021/10/07 10:08:02;;;;;;;5.70;5.20;;;;;;;22.10;41.54;102455.00;5033164;28;20432;-70
2021/10/07 10:10:28;;;;;;;6.30;5.23;;;;;;;21.94;41.69;102448.09;5046213;28;20431;-70
2021/10/07 10:12:55;;;;;;;5.60;5.07;;;;;;;22.42;40.95;102447.56;5035250;28;20424;-70
2021/10/07 10:15:21;;;;;;;6.17;4.70;;;;;;;22.83;40.66;102452.31;5049459;28;20165;-70
2021/10/07 10:17:47;;;;;;;5.73;5.13;;;;;;;22.31;41.37;102456.53;5050324;28;20475;-70
2021/10/07 10:20:20;;;;;;;5.20;4.80;;;;;;;23.66;39.20;102447.47;5047096;28;20483;-70
2021/10/07 10:23:11;;;;;;;5.00;4.50;;;;;;;22.78;39.74;102461.28;5047901;28;20511;-70
2021/10/07 10:25:57;;;;;;;7.60;4.70;;;;;;;21.26;43.11;102462.84;5049649;28;20424;-70
2021/10/07 10:28:35;;;;;;;5.77;4.87;;;;;;;22.08;42.25;102459.44;5048773;28;20429;-70
2021/10/07 10:31:05;;;;;;;4.53;4.10;;;;;;;20.82;43.07;102458.69;5048515;28;20416;-69
2021/10/07 10:33:34;;;;;;;6.00;4.03;;;;;;;21.59;42.52;102465.25;5042946;28;20521;-70
2021/10/07 10:36:00;;;;;;;6.00;4.40;;;;;;;23.07;39.18;102452.88;5020477;28;20428;-69
2021/10/07 10:38:27;;;;;;;4.30;3.90;;;;;;;21.47;41.55;102461.78;5037589;28;20480;-69
2021/10/07 10:40:53;;;;;;;4.70;4.20;;;;;;;22.52;40.76;102457.19;5038104;28;20409;-69
2021/10/07 10:43:18;;;;;;;4.80;4.40;;;;;;;22.11;40.64;102464.75;5039738;28;20428;-70
2021/10/07 10:45:52;;;;;;;4.60;4.20;;;;;;;22.69;40.79;102467.59;5041445;28;20176;-70
2021/10/07 10:48:47;;;;;;;4.03;3.73;;;;;;;21.38;42.30;102469.81;5042066;28;20411;-69
2021/10/07 10:51:14;;;;;;;5.27;4.23;;;;;;;20.99;43.90;102475.38;5041365;28;20452;-69
2021/10/07 10:53:50;;;;;;;6.97;6.27;;;;;;;20.75;44.22;102473.75;5041533;28;20431;-69
2021/10/07 10:56:17;;;;;;;5.07;4.03;;;;;;;22.11;40.53;102477.13;5045608;28;20421;-70
2021/10/07 10:58:52;;;;;;;4.10;3.33;;;;;;;22.33;40.80;102475.13;5047065;28;20513;-70
2021/10/07 11:01:17;;;;;;;4.13;3.73;;;;;;;21.48;41.82;102478.59;5045008;28;20674;-70
2021/10/07 11:03:42;;;;;;;3.80;3.40;;;;;;;22.36;40.55;102477.75;5061268;28;20415;-69
2021/10/07 11:06:11;;;;;;;5.73;3.70;;;;;;;23.30;38.51;102481.81;5061203;28;20189;-69
2021/10/07 11:08:42;;;;;;;3.80;3.50;;;;;;;22.76;39.00;102481.69;5061158;28;20219;-69
2021/10/07 11:11:09;;;;;;;3.80;3.50;;;;;;;22.94;38.43;102478.75;5060986;28;20415;-69
2021/10/07 11:13:45;;;;;;;3.77;3.40;;;;;;;22.24;40.08;102480.53;5061170;28;20419;-69
2021/10/07 11:16:14;;;;;;;3.40;3.20;;;;;;;22.18;40.44;102482.34;5060561;28;20416;-68
2021/10/07 11:18:40;;;;;;;3.70;3.40;;;;;;;21.16;42.36;102477.94;5060593;28;20463;-70
2021/10/07 11:21:12;;;;;;;3.80;3.50;;;;;;;22.00;40.63;102487.84;5060640;28;20502;-69
2021/10/07 11:23:38;;;;;;;3.73;3.40;;;;;;;21.42;41.78;102494.53;5060464;28;20166;-70